createdAt,value
2019-02-16T00:01:07.001Z,5.60
2019-02-16T00:03:11.104Z,5.22
2019-02-16T00:05:15.206Z,5.58
2019-02-16T00:07:19.936Z,5.45
2019-02-16T00:09:24.054Z,5.45
2019-02-16T00:11:27.907Z,5.85
2019-02-16T00:13:31.712Z,5.12
2019-02-16T00:15:35.880Z,5.08
2019-02-16T00:17:40.084Z,6.85
2019-02-16T00:19:44.188Z,5.17
2019-02-16T00:21:48.289Z,5.75
2019-02-16T00:23:52.400Z,5.22
2019-02-16T00:25:56.214Z,5.40
2019-02-16T00:28:00.314Z,5.10
2019-02-16T00:30:05.552Z,5.58
2019-02-16T00:32:09.674Z,5.50
2019-02-16T00:34:13.475Z,4.97
2019-02-16T00:36:17.676Z,4.90
2019-02-16T00:38:22.615Z,5.20
2019-02-16T00:40:26.726Z,4.95
2019-02-16T00:42:30.570Z,6.20
2019-02-16T00:44:34.746Z,5.95
2019-02-16T00:46:38.858Z,6.00
2019-02-16T00:48:43.066Z,4.62
2019-02-16T00:50:47.174Z,4.72
2019-02-16T00:52:55.184Z,5.15
2019-02-16T00:54:59.600Z,5.05
2019-02-16T00:57:03.710Z,4.42
2019-02-16T00:59:07.818Z,5.08
2019-02-16T01:01:11.920Z,5.47
2019-02-16T01:03:16.026Z,4.92
2019-02-16T01:05:24.652Z,5.00
2019-02-16T01:07:28.760Z,4.35
2019-02-16T01:09:32.566Z,4.87
2019-02-16T01:11:36.771Z,4.80
2019-02-16T01:13:40.881Z,4.42
2019-02-16T01:15:44.696Z,5.00
2019-02-16T01:17:48.525Z,4.80
2019-02-16T01:19:52.691Z,4.37
2019-02-16T01:21:56.811Z,4.67
2019-02-16T01:24:00.921Z,4.20
2019-02-16T01:26:05.029Z,3.40
2019-02-16T01:28:09.140Z,3.65
2019-02-16T01:30:13.346Z,3.92
2019-02-16T01:32:17.474Z,4.22
2019-02-16T01:34:21.601Z,4.08
2019-02-16T01:36:27.209Z,3.70
2019-02-16T01:38:31.028Z,3.67
2019-02-16T01:40:35.134Z,3.83
2019-02-16T01:42:39.344Z,3.83
2019-02-16T01:44:43.417Z,3.70
2019-02-16T01:46:47.558Z,3.80
2019-02-16T01:48:51.680Z,4.33
2019-02-16T01:50:55.485Z,3.92
2019-02-16T01:52:59.689Z,3.65
2019-02-16T01:55:03.899Z,3.42
2019-02-16T01:57:09.948Z,3.90
2019-02-16T01:59:14.071Z,4.28
2019-02-16T02:01:18.383Z,4.58
2019-02-16T02:03:23.609Z,3.75
2019-02-16T02:05:27.737Z,3.37
2019-02-16T02:07:31.588Z,5.15
2019-02-16T02:09:35.745Z,3.75
2019-02-16T02:11:39.960Z,4.37
2019-02-16T02:13:47.653Z,4.53
2019-02-16T02:15:52.869Z,4.28
2019-02-16T02:17:56.993Z,4.50
2019-02-16T02:20:00.802Z,3.90
2019-02-16T02:22:04.922Z,3.65
2019-02-16T02:24:09.123Z,5.15
2019-02-16T02:26:12.929Z,4.22
2019-02-16T02:28:17.057Z,4.60
2019-02-16T02:30:20.873Z,4.30
2019-02-16T02:32:24.965Z,5.62
2019-02-16T02:34:29.353Z,5.00
2019-02-16T02:36:35.765Z,5.97
2019-02-16T02:38:39.025Z,5.60
2019-02-16T02:40:42.829Z,5.83
2019-02-16T02:42:46.687Z,6.58
2019-02-16T02:44:50.896Z,5.35
2019-02-16T02:46:54.960Z,5.47
2019-02-16T02:48:59.161Z,5.70
2019-02-16T02:51:02.984Z,6.08
2019-02-16T02:53:07.088Z,5.87
2019-02-16T02:55:11.393Z,6.05
2019-02-16T02:57:15.222Z,5.42
2019-02-16T02:59:19.407Z,5.03
2019-02-16T03:01:23.528Z,7.00
2019-02-16T03:03:27.337Z,6.28
2019-02-16T03:05:31.442Z,5.25
2019-02-16T03:07:35.550Z,9.10
2019-02-16T03:09:39.659Z,8.53
2019-02-16T03:11:43.767Z,7.15
2019-02-16T03:13:48.131Z,5.45
2019-02-16T03:15:51.975Z,5.50
2019-02-16T03:17:56.098Z,6.97
2019-02-16T03:20:00.351Z,6.00
2019-02-16T03:22:04.124Z,6.42
2019-02-16T03:24:08.235Z,6.50
2019-02-16T03:26:15.429Z,10.20
2019-02-16T03:28:40.603Z,8.25
2019-02-16T03:31:10.536Z,6.15
2019-02-16T03:33:40.216Z,6.70
2019-02-16T03:36:11.586Z,5.55
2019-02-16T03:38:27.479Z,7.17
2019-02-16T03:40:32.705Z,5.90
2019-02-16T03:42:36.509Z,5.53
2019-02-16T03:44:40.491Z,6.17
2019-02-16T03:46:44.311Z,5.75
2019-02-16T03:48:48.300Z,5.72
2019-02-16T03:50:52.141Z,6.12
2019-02-16T03:52:55.949Z,5.87
2019-02-16T03:55:00.058Z,6.25
2019-02-16T03:57:04.169Z,6.35
2019-02-16T03:59:09.908Z,5.75
2019-02-16T04:01:14.011Z,5.97
2019-02-16T04:03:18.424Z,5.78
2019-02-16T04:05:22.537Z,7.17
2019-02-16T04:07:26.649Z,7.85
2019-02-16T04:09:30.880Z,7.67
2019-02-16T04:11:35.280Z,7.22
2019-02-16T04:13:39.107Z,14.18
2019-02-16T04:15:43.286Z,14.95
2019-02-16T04:17:48.958Z,11.05
2019-02-16T04:19:53.061Z,14.35
2019-02-16T04:21:57.248Z,9.58
2019-02-16T04:24:01.575Z,10.95
2019-02-16T04:26:08.936Z,10.72
2019-02-16T04:28:13.084Z,12.18
2019-02-16T04:30:17.302Z,10.80
2019-02-16T04:32:21.100Z,10.90
2019-02-16T04:34:25.319Z,18.62
2019-02-16T04:36:29.843Z,12.07
2019-02-16T04:38:35.790Z,11.10
2019-02-16T04:40:40.018Z,15.00
2019-02-16T04:42:44.204Z,14.07
2019-02-16T04:44:48.409Z,13.20
2019-02-16T04:46:52.557Z,9.00
2019-02-16T04:48:56.631Z,7.67
2019-02-16T04:51:00.761Z,8.03
2019-02-16T04:53:04.959Z,9.20
2019-02-16T04:55:09.169Z,7.53
2019-02-16T04:57:13.277Z,7.50
2019-02-16T04:59:17.108Z,8.88
2019-02-16T05:01:21.298Z,7.85
2019-02-16T05:03:25.139Z,8.48
2019-02-16T05:05:29.422Z,8.80
2019-02-16T05:07:33.621Z,7.55
2019-02-16T05:09:37.953Z,8.60
2019-02-16T05:11:42.148Z,8.48
2019-02-16T05:13:46.583Z,8.13
2019-02-16T05:15:50.501Z,8.10
2019-02-16T05:17:55.886Z,8.35
2019-02-16T05:20:00.048Z,8.48
2019-02-16T05:22:04.151Z,7.85
2019-02-16T05:24:08.252Z,9.28
2019-02-16T05:26:12.378Z,8.38
2019-02-16T05:28:16.221Z,8.40
2019-02-16T05:30:20.374Z,8.90
2019-02-16T05:32:24.488Z,11.53
2019-02-16T05:34:28.694Z,9.50
2019-02-16T05:36:32.518Z,9.78
2019-02-16T05:38:36.719Z,11.85
2019-02-16T05:40:40.924Z,11.70
2019-02-16T05:42:46.383Z,12.93
2019-02-16T05:44:50.585Z,12.98
2019-02-16T05:46:54.427Z,12.70
2019-02-16T05:48:58.248Z,12.10
2019-02-16T05:51:02.393Z,15.10
2019-02-16T05:53:06.244Z,13.45
2019-02-16T05:55:10.412Z,13.90
2019-02-16T05:57:14.537Z,14.93
2019-02-16T05:59:18.738Z,15.00
2019-02-16T06:01:22.556Z,15.55
2019-02-16T06:03:26.766Z,14.75
2019-02-16T06:05:31.003Z,15.68
2019-02-16T06:07:35.196Z,16.10
2019-02-16T06:09:39.037Z,16.50
2019-02-16T06:11:42.875Z,15.93
2019-02-16T06:13:46.721Z,16.02
2019-02-16T06:15:50.581Z,17.15
2019-02-16T06:17:54.820Z,17.37
2019-02-16T06:19:58.640Z,16.50
2019-02-16T06:22:02.840Z,15.15
2019-02-16T06:24:07.034Z,17.80
2019-02-16T06:26:11.150Z,18.23
2019-02-16T06:28:14.979Z,16.80
2019-02-16T06:30:19.164Z,17.23
2019-02-16T06:32:23.270Z,17.02
2019-02-16T06:34:27.870Z,20.62
2019-02-16T06:36:33.594Z,19.52
2019-02-16T06:38:39.287Z,20.35
2019-02-16T06:40:43.495Z,19.45
2019-02-16T06:42:47.346Z,23.67
2019-02-16T06:44:51.516Z,20.97
2019-02-16T06:46:55.634Z,20.40
2019-02-16T06:49:01.085Z,20.60
2019-02-16T06:51:04.860Z,19.98
2019-02-16T06:53:13.247Z,20.57
2019-02-16T06:55:16.590Z,19.77
2019-02-16T06:57:24.759Z,19.70
2019-02-16T06:59:28.998Z,21.35
2019-02-16T07:01:34.398Z,22.20
2019-02-16T07:03:38.550Z,21.80
2019-02-16T07:05:42.754Z,20.90
2019-02-16T07:07:46.970Z,21.05
2019-02-16T07:09:50.802Z,24.75
2019-02-16T07:11:54.991Z,20.68
2019-02-16T07:13:59.088Z,20.88
2019-02-16T07:16:20.716Z,20.43
2019-02-16T07:18:26.574Z,20.75
2019-02-16T07:20:32.313Z,21.37
2019-02-16T07:22:36.433Z,22.32
2019-02-16T07:24:40.644Z,20.60
2019-02-16T07:26:44.866Z,18.75
2019-02-16T07:28:49.070Z,20.37
2019-02-16T07:30:53.281Z,21.25
2019-02-16T07:32:57.384Z,21.52
2019-02-16T07:35:01.521Z,20.02
2019-02-16T07:37:05.911Z,22.00
2019-02-16T07:39:09.744Z,19.55
2019-02-16T07:41:13.932Z,19.55
2019-02-16T07:43:25.717Z,17.25
2019-02-16T07:45:40.080Z,21.12
2019-02-16T07:47:45.606Z,20.02
2019-02-16T07:49:57.398Z,20.48
2019-02-16T07:52:11.562Z,19.23
2019-02-16T07:54:17.395Z,21.23
2019-02-16T07:56:26.225Z,19.67
2019-02-16T07:58:38.094Z,19.48
2019-02-16T08:00:46.639Z,20.77
2019-02-16T08:02:54.998Z,18.05
2019-02-16T08:05:04.100Z,18.20
2019-02-16T08:07:21.284Z,18.07
2019-02-16T08:09:32.890Z,18.35
2019-02-16T08:11:38.786Z,18.42
2019-02-16T08:13:46.690Z,17.57
2019-02-16T08:16:08.401Z,17.85
2019-02-16T08:18:30.286Z,17.77
2019-02-16T08:20:38.984Z,18.40
2019-02-16T08:22:56.613Z,20.62
2019-02-16T08:25:05.194Z,19.60
2019-02-16T08:27:19.285Z,18.75
2019-02-16T08:29:25.129Z,19.57
2019-02-16T08:31:30.609Z,20.08
2019-02-16T08:33:45.632Z,17.73
2019-02-16T08:35:51.130Z,18.00
2019-02-16T08:38:02.394Z,18.50
2019-02-16T08:40:08.609Z,17.12
2019-02-16T08:42:30.344Z,17.27
2019-02-16T08:44:41.624Z,15.60
2019-02-16T08:47:03.652Z,17.10
2019-02-16T08:49:27.452Z,18.00
2019-02-16T08:51:49.560Z,17.48
2019-02-16T08:53:58.563Z,18.50
2019-02-16T08:56:04.318Z,16.15
2019-02-16T08:58:24.898Z,15.38
2019-02-16T09:00:46.858Z,17.27
2019-02-16T09:02:58.439Z,17.07
2019-02-16T09:05:04.283Z,16.55
2019-02-16T09:07:22.028Z,17.40
2019-02-16T09:09:27.800Z,16.87
2019-02-16T09:11:42.211Z,15.70
2019-02-16T09:13:59.433Z,15.68
2019-02-16T09:16:05.169Z,18.02
2019-02-16T09:18:25.609Z,16.70
2019-02-16T09:20:46.375Z,15.25
2019-02-16T09:22:54.989Z,15.55
2019-02-16T09:25:13.131Z,15.88
2019-02-16T09:27:35.255Z,15.53
2019-02-16T09:29:49.738Z,15.43
2019-02-16T09:31:55.201Z,14.83
2019-02-16T09:34:00.689Z,14.20
2019-02-16T09:36:06.457Z,13.10
2019-02-16T09:38:28.219Z,15.10
2019-02-16T09:40:34.017Z,15.63
2019-02-16T09:42:42.837Z,14.10
2019-02-16T09:45:03.759Z,14.53
2019-02-16T09:47:25.677Z,14.83
2019-02-16T09:49:31.420Z,14.58
2019-02-16T09:51:37.270Z,13.28
2019-02-16T09:53:42.728Z,14.78
2019-02-16T09:56:03.501Z,14.58
2019-02-16T09:58:11.387Z,13.95
2019-02-16T10:00:22.737Z,12.90
2019-02-16T10:02:31.503Z,11.57
2019-02-16T10:04:45.560Z,11.53
2019-02-16T10:07:03.082Z,10.35
2019-02-16T10:09:25.250Z,9.63
2019-02-16T10:11:36.993Z,9.43
2019-02-16T10:13:42.757Z,10.82
2019-02-16T10:15:51.575Z,11.33
2019-02-16T10:18:00.289Z,15.00
2019-02-16T10:20:16.077Z,11.20
2019-02-16T10:22:21.545Z,11.38
2019-02-16T10:24:36.383Z,10.75
2019-02-16T10:26:41.838Z,10.38
2019-02-16T10:28:47.323Z,9.55
2019-02-16T10:30:56.124Z,10.30
2019-02-16T10:33:17.421Z,9.98
2019-02-16T10:35:29.183Z,9.78
2019-02-16T10:37:41.038Z,9.70
2019-02-16T10:39:55.523Z,9.70
2019-02-16T10:42:04.040Z,8.90
2019-02-16T10:44:12.157Z,9.03
2019-02-16T10:46:20.375Z,9.07
2019-02-16T10:48:35.145Z,9.03
2019-02-16T10:50:40.317Z,8.23
2019-02-16T10:52:45.916Z,9.77
2019-02-16T10:54:57.225Z,9.40
2019-02-16T10:57:14.701Z,9.70
2019-02-16T10:59:20.248Z,9.80
2019-02-16T11:01:34.798Z,8.20
2019-02-16T11:03:52.127Z,9.37
2019-02-16T11:06:16.005Z,8.77
2019-02-16T11:08:33.119Z,9.33
2019-02-16T11:10:38.661Z,9.83
2019-02-16T11:12:47.218Z,9.60
2019-02-16T11:15:01.254Z,8.93
2019-02-16T11:17:21.722Z,9.17
2019-02-16T11:19:26.891Z,9.70
2019-02-16T11:21:38.264Z,12.40
2019-02-16T11:23:52.188Z,10.57
2019-02-16T11:26:06.713Z,9.33
2019-02-16T11:28:14.914Z,9.63
2019-02-16T11:30:25.888Z,9.93
2019-02-16T11:32:31.422Z,9.83
2019-02-16T11:34:36.965Z,10.77
2019-02-16T11:36:48.357Z,9.60
2019-02-16T11:38:53.557Z,9.23
2019-02-16T11:41:05.069Z,8.63
2019-02-16T11:43:29.065Z,10.27
2019-02-16T11:45:50.500Z,9.70
2019-02-16T11:47:56.113Z,9.00
2019-02-16T11:50:10.567Z,9.23
2019-02-16T11:52:32.622Z,10.00
2019-02-16T11:54:46.802Z,10.30
2019-02-16T11:57:01.039Z,9.20
2019-02-16T11:59:14.775Z,9.20
2019-02-16T12:01:22.697Z,9.50
2019-02-16T12:03:28.127Z,8.40
2019-02-16T12:05:33.301Z,8.77
2019-02-16T12:07:54.775Z,10.10
2019-02-16T12:10:09.071Z,15.73
2019-02-16T12:12:17.603Z,9.30
2019-02-16T12:14:31.249Z,8.60
2019-02-16T12:16:42.543Z,13.03
2019-02-16T12:18:59.473Z,10.43
2019-02-16T12:21:07.935Z,11.30
2019-02-16T12:23:16.233Z,10.13
2019-02-16T12:25:24.537Z,10.73
2019-02-16T12:27:32.411Z,9.83
2019-02-16T12:29:40.441Z,10.20
2019-02-16T12:31:51.625Z,11.30
2019-02-16T12:34:13.041Z,13.47
2019-02-16T12:36:34.317Z,9.43
2019-02-16T12:38:45.420Z,8.70
2019-02-16T12:40:53.829Z,9.63
2019-02-16T12:43:05.105Z,11.13
2019-02-16T12:45:12.337Z,9.70
2019-02-16T12:47:17.861Z,12.23
2019-02-16T12:49:35.343Z,10.37
2019-02-16T12:51:40.802Z,10.23
2019-02-16T12:53:46.328Z,8.87
2019-02-16T12:56:08.381Z,9.40
2019-02-16T12:58:29.441Z,10.27
2019-02-16T13:00:37.713Z,9.73
2019-02-16T13:02:42.885Z,9.23
2019-02-16T13:05:06.226Z,20.10
2019-02-16T13:07:20.323Z,15.37
2019-02-16T13:09:37.347Z,11.27
2019-02-16T13:11:45.551Z,10.50
2019-02-16T13:14:08.814Z,15.63
2019-02-16T13:16:14.346Z,11.00
2019-02-16T13:18:19.540Z,9.63
2019-02-16T13:20:40.938Z,12.73
2019-02-16T13:22:48.803Z,15.83
2019-02-16T13:24:54.342Z,11.40
2019-02-16T13:27:02.219Z,9.00
2019-02-16T13:29:07.402Z,18.87
2019-02-16T13:31:12.921Z,10.73
2019-02-16T13:33:18.497Z,13.47
2019-02-16T13:35:27.086Z,14.73
2019-02-16T13:37:32.620Z,15.73
2019-02-16T13:39:49.642Z,15.90
2019-02-16T13:41:54.814Z,11.30
2019-02-16T13:44:18.258Z,12.87
2019-02-16T13:46:32.474Z,20.50
2019-02-16T13:48:38.016Z,20.47
2019-02-16T13:50:45.892Z,21.83
2019-02-16T13:52:53.604Z,13.57
2019-02-16T13:55:05.090Z,11.00
2019-02-16T13:57:10.647Z,9.47
2019-02-16T13:59:32.284Z,10.60
2019-02-16T14:01:37.806Z,10.73
2019-02-16T14:03:49.108Z,18.60
2019-02-16T14:05:57.184Z,20.40
2019-02-16T14:08:06.004Z,17.70
2019-02-16T14:10:27.500Z,15.13
2019-02-16T14:12:33.081Z,15.00
2019-02-16T14:14:38.540Z,12.97
2019-02-16T14:16:49.702Z,16.27
2019-02-16T14:18:53.608Z,15.80
2019-02-16T14:20:57.522Z,25.57
2019-02-16T14:23:01.070Z,27.23
2019-02-16T14:25:10.848Z,19.57
2019-02-16T14:27:14.379Z,20.23
2019-02-16T14:29:18.248Z,16.83
2019-02-16T14:31:28.273Z,17.73
2019-02-16T14:33:27.109Z,17.50
2019-02-16T14:35:33.849Z,17.40
2019-02-16T14:37:42.569Z,30.37
2019-02-16T14:39:46.470Z,35.47
2019-02-16T14:41:50.382Z,35.17
2019-02-16T14:43:54.281Z,75.20
2019-02-16T14:45:58.097Z,44.33
2019-02-16T14:48:02.043Z,31.37
2019-02-16T14:50:08.470Z,12.97
2019-02-16T14:52:12.418Z,43.27
2019-02-16T14:54:16.287Z,14.67
2019-02-16T14:56:19.809Z,14.90
2019-02-16T14:58:23.688Z,13.10
2019-02-16T15:00:27.338Z,13.83
2019-02-16T15:02:31.493Z,21.93
2019-02-16T15:04:35.020Z,17.43
2019-02-16T15:06:38.986Z,13.53
2019-02-16T15:08:42.537Z,32.27
2019-02-16T15:10:46.389Z,18.80
2019-02-16T15:12:50.281Z,13.73
2019-02-16T15:14:54.195Z,13.87
2019-02-16T15:16:57.731Z,12.40
2019-02-16T15:19:01.582Z,12.43
2019-02-16T15:21:05.509Z,12.73
2019-02-16T15:23:09.037Z,11.50
2019-02-16T15:25:13.214Z,10.70
2019-02-16T15:27:17.128Z,11.17
2019-02-16T15:29:22.288Z,10.40
2019-02-16T15:31:26.155Z,12.03
2019-02-16T15:33:30.059Z,11.47
2019-02-16T15:35:35.973Z,12.47
2019-02-16T15:37:39.658Z,11.80
2019-02-16T15:39:43.521Z,11.17
2019-02-16T15:41:47.043Z,12.13
2019-02-16T15:43:50.596Z,12.07
2019-02-16T15:45:54.121Z,11.60
2019-02-16T15:47:58.033Z,13.30
2019-02-16T15:50:01.923Z,15.33
2019-02-16T15:52:05.831Z,13.30
2019-02-16T15:54:09.737Z,13.07
2019-02-16T15:56:16.506Z,11.60
2019-02-16T15:58:20.252Z,15.50
2019-02-16T16:00:25.689Z,13.97
2019-02-16T16:02:29.549Z,20.17
2019-02-16T16:04:35.933Z,29.40
2019-02-16T16:06:39.825Z,37.10
2019-02-16T16:08:54.360Z,36.10
2019-02-16T16:11:02.473Z,52.90
2019-02-16T16:13:13.556Z,109.30
2019-02-16T16:15:30.709Z,92.23
2019-02-16T16:17:38.701Z,63.53
2019-02-16T16:19:50.161Z,54.53
2019-02-16T16:21:58.670Z,35.67
2019-02-16T16:24:10.104Z,24.30
2019-02-16T16:26:19.290Z,18.70
2019-02-16T16:28:22.887Z,12.00
2019-02-16T16:30:30.854Z,12.83
2019-02-16T16:32:54.026Z,13.27
2019-02-16T16:35:14.245Z,12.87
2019-02-16T16:37:25.501Z,12.13
2019-02-16T16:39:31.039Z,11.67
2019-02-16T16:41:48.981Z,11.13
2019-02-16T16:43:54.514Z,12.67
2019-02-16T16:46:01.595Z,12.90
2019-02-16T16:48:10.017Z,12.50
2019-02-16T16:50:31.737Z,12.37
2019-02-16T16:52:37.278Z,12.50
2019-02-16T16:54:45.170Z,12.03
2019-02-16T16:56:56.466Z,13.33
2019-02-16T16:59:02.307Z,12.73
2019-02-16T17:01:17.084Z,14.27
2019-02-16T17:03:38.169Z,12.28
2019-02-16T17:05:46.796Z,13.65
2019-02-16T17:07:52.651Z,14.33
2019-02-16T17:10:00.950Z,12.20
2019-02-16T17:12:24.928Z,12.07
2019-02-16T17:14:51.934Z,14.38
2019-02-16T17:17:03.177Z,13.10
2019-02-16T17:19:11.661Z,13.05
2019-02-16T17:21:23.869Z,12.25
2019-02-16T17:23:34.943Z,13.45
2019-02-16T17:25:43.769Z,12.95
2019-02-16T17:28:01.265Z,12.18
2019-02-16T17:30:27.333Z,12.43
2019-02-16T17:32:38.899Z,11.97
2019-02-16T17:34:47.270Z,11.95
2019-02-16T17:37:11.187Z,13.00
2019-02-16T17:39:18.370Z,11.12
2019-02-16T17:41:26.856Z,12.33
2019-02-16T17:43:32.727Z,11.95
2019-02-16T17:45:41.027Z,12.33
2019-02-16T17:47:52.321Z,10.98
2019-02-16T17:49:58.156Z,12.40
2019-02-16T17:52:03.621Z,12.70
2019-02-16T17:54:12.373Z,11.73
2019-02-16T17:56:23.902Z,12.03
2019-02-16T17:58:32.309Z,13.00
2019-02-16T18:00:57.517Z,13.50
2019-02-16T18:03:15.346Z,12.40
2019-02-16T18:05:39.319Z,14.07
2019-02-16T18:07:50.659Z,12.95
2019-02-16T18:09:56.120Z,12.90
2019-02-16T18:12:03.463Z,13.18
2019-02-16T18:14:11.533Z,12.78
2019-02-16T18:16:17.017Z,12.90
2019-02-16T18:18:34.615Z,13.50
2019-02-16T18:20:40.088Z,12.60
2019-02-16T18:22:45.919Z,13.72
2019-02-16T18:25:08.127Z,13.58
2019-02-16T18:27:16.344Z,13.40
2019-02-16T18:29:22.189Z,12.63
2019-02-16T18:31:46.075Z,12.88
2019-02-16T18:33:58.059Z,12.28
2019-02-16T18:36:06.235Z,12.70
2019-02-16T18:38:14.092Z,12.43
2019-02-16T18:40:20.013Z,11.88
2019-02-16T18:42:31.632Z,11.75
2019-02-16T18:44:49.465Z,10.82
2019-02-16T18:46:58.051Z,12.15
2019-02-16T18:49:03.535Z,10.53
2019-02-16T18:53:38.946Z,11.95
2019-02-16T18:55:50.217Z,10.80
2019-02-16T18:58:07.859Z,11.03
2019-02-16T19:00:14.012Z,10.90
2019-02-16T19:02:25.794Z,10.65
2019-02-16T19:04:37.311Z,10.35
2019-02-16T19:06:45.462Z,9.53
2019-02-16T19:08:56.688Z,11.15
2019-02-16T19:11:18.682Z,9.60
2019-02-16T19:13:33.579Z,10.20
2019-02-16T19:15:39.621Z,10.65
2019-02-16T19:17:45.409Z,11.73
2019-02-16T19:19:50.878Z,11.73
2019-02-16T19:22:12.839Z,11.73
2019-02-16T19:24:30.668Z,10.68
2019-02-16T19:26:39.376Z,10.68
2019-02-16T19:28:48.110Z,11.38
2019-02-16T19:31:02.755Z,11.40
2019-02-16T19:33:08.611Z,11.15
2019-02-16T19:35:14.398Z,11.18
2019-02-16T19:37:23.307Z,11.22
2019-02-16T19:39:32.205Z,10.05
2019-02-16T19:41:46.964Z,10.93
2019-02-16T19:43:52.824Z,10.10
2019-02-16T19:46:01.531Z,10.32
2019-02-16T19:48:13.110Z,11.53
2019-02-16T19:50:21.050Z,9.93
2019-02-16T19:52:29.340Z,9.93
2019-02-16T19:54:35.186Z,10.60
2019-02-16T19:56:43.790Z,10.32
2019-02-16T19:59:06.029Z,10.88
2019-02-16T20:01:11.518Z,10.05
2019-02-16T20:03:17.320Z,11.48
2019-02-16T20:05:22.797Z,10.50
2019-02-16T20:07:39.917Z,11.50
2019-02-16T20:09:45.732Z,10.95
2019-02-16T20:12:06.857Z,10.70
2019-02-16T20:14:21.503Z,9.95
2019-02-16T20:16:27.654Z,10.98
2019-02-16T20:18:44.860Z,10.35
2019-02-16T20:20:53.492Z,9.88
2019-02-16T20:23:07.520Z,10.10
2019-02-16T20:25:13.275Z,8.75
2019-02-16T20:27:19.128Z,9.53
2019-02-16T20:29:27.346Z,9.10
2019-02-16T20:31:42.096Z,9.75
2019-02-16T20:33:52.246Z,9.00
2019-02-16T20:36:04.338Z,10.28
2019-02-16T20:38:15.930Z,9.20
2019-02-16T20:40:24.086Z,9.78
2019-02-16T20:42:35.394Z,9.20
2019-02-16T20:44:44.136Z,8.43
2019-02-16T20:46:51.138Z,10.00
2019-02-16T20:49:12.826Z,9.63
2019-02-16T20:51:19.165Z,9.95
2019-02-16T20:53:37.348Z,9.98
2019-02-16T20:55:42.830Z,9.65
2019-02-16T20:57:48.599Z,9.73
2019-02-16T20:59:54.484Z,10.30
2019-02-16T21:02:15.254Z,10.45
2019-02-16T21:04:24.504Z,9.80
2019-02-16T21:06:44.238Z,10.25
2019-02-16T21:08:55.774Z,10.95
2019-02-16T21:11:04.598Z,10.28
2019-02-16T21:13:10.088Z,11.08
2019-02-16T21:15:18.970Z,10.90
2019-02-16T21:17:24.467Z,11.38
2019-02-16T21:19:49.704Z,10.60
2019-02-16T21:22:11.296Z,9.88
2019-02-16T21:24:22.357Z,10.75
2019-02-16T21:26:36.558Z,9.83
2019-02-16T21:28:39.216Z,10.45
2019-02-16T21:31:03.453Z,10.00
2019-02-16T21:33:11.916Z,9.30
2019-02-16T21:35:20.737Z,9.35
2019-02-16T21:37:35.705Z,10.35
2019-02-16T21:39:41.178Z,8.50
2019-02-16T21:41:52.519Z,9.90
2019-02-16T21:44:00.722Z,8.03
2019-02-16T21:46:11.867Z,7.83
2019-02-16T21:48:20.334Z,9.03
2019-02-16T21:50:42.130Z,8.95
2019-02-16T21:52:48.002Z,7.50
2019-02-16T21:55:10.439Z,7.87
2019-02-16T21:57:32.168Z,7.53
2019-02-16T21:59:38.000Z,6.97
2019-02-16T22:01:49.813Z,7.17
2019-02-16T22:03:58.305Z,7.17
2019-02-16T22:06:09.760Z,7.17
2019-02-16T22:08:15.214Z,7.10
2019-02-16T22:10:20.690Z,6.97
2019-02-16T22:12:38.729Z,7.05
2019-02-16T22:14:44.431Z,6.20
2019-02-16T22:16:48.234Z,6.65
2019-02-16T22:18:52.374Z,6.20
2019-02-16T22:20:56.578Z,6.30
2019-02-16T22:23:00.691Z,6.15
2019-02-16T22:25:05.349Z,6.75
2019-02-16T22:27:09.542Z,6.37
2019-02-16T22:29:15.704Z,5.97
2019-02-16T22:31:19.175Z,6.17
2019-02-16T22:33:23.291Z,6.75
2019-02-16T22:35:28.888Z,7.33
2019-02-16T22:37:32.736Z,6.85
2019-02-16T22:39:36.572Z,7.15
2019-02-16T22:41:42.058Z,7.42
2019-02-16T22:43:46.202Z,8.33
2019-02-16T22:45:51.841Z,6.62
2019-02-16T22:47:55.961Z,6.90
2019-02-16T22:50:00.071Z,7.33
2019-02-16T22:52:04.189Z,7.80
2019-02-16T22:54:08.397Z,7.12
2019-02-16T22:56:12.525Z,6.60
2019-02-16T22:58:16.711Z,7.30
2019-02-16T23:00:38.139Z,7.97
2019-02-16T23:02:42.339Z,7.53
2019-02-16T23:04:46.256Z,6.83
2019-02-16T23:06:50.372Z,7.42
2019-02-16T23:08:54.573Z,7.90
2019-02-16T23:10:58.682Z,8.00
2019-02-16T23:13:02.493Z,7.87
2019-02-16T23:15:11.521Z,9.03
2019-02-16T23:17:15.720Z,8.53
2019-02-16T23:19:19.942Z,8.35
2019-02-16T23:21:23.759Z,7.72
2019-02-16T23:23:27.947Z,8.50
2019-02-16T23:25:32.152Z,9.05
2019-02-16T23:27:36.377Z,8.93
2019-02-16T23:29:40.487Z,9.33
2019-02-16T23:31:44.700Z,9.50
2019-02-16T23:33:49.011Z,8.88
2019-02-16T23:35:53.143Z,9.88
2019-02-16T23:37:57.339Z,8.83
2019-02-16T23:40:01.441Z,9.18
2019-02-16T23:42:05.345Z,9.93
2019-02-16T23:44:09.471Z,10.58
2019-02-16T23:46:13.667Z,10.03
2019-02-16T23:48:17.787Z,10.40
2019-02-16T23:50:21.885Z,9.48
2019-02-16T23:52:25.757Z,9.73
2019-02-16T23:54:29.913Z,9.13
2019-02-16T23:56:33.712Z,9.03
2019-02-16T23:58:37.931Z,7.58
